sensor_id;sensor_type;location;lat;lon;timestamp;P1;durP1;ratioP1;P2;durP2;ratioP2
77287;SDS011;66345;42.694;23.346;2023-04-03T00:01:01;34.60;;;16.67;;
77287;SDS011;66345;42.694;23.346;2023-04-03T00:03:27;28.90;;;14.77;;
77287;SDS011;66345;42.694;23.346;2023-04-03T00:05:52;29.07;;;14.00;;
77287;SDS011;66345;42.694;23.346;2023-04-03T00:08:18;30.17;;;14.75;;
77287;SDS011;66345;42.694;23.346;2023-04-03T00:10:44;32.05;;;15.27;;
77287;SDS011;66345;42.694;23.346;2023-04-03T00:13:10;31.07;;;13.50;;
77287;SDS011;66345;42.694;23.346;2023-04-03T00:15:36;29.83;;;13.82;;
77287;SDS011;66345;42.694;23.346;2023-04-03T00:18:02;27.67;;;13.90;;
77287;SDS011;66345;42.694;23.346;2023-04-03T00:20:29;31.42;;;14.38;;
77287;SDS011;66345;42.694;23.346;2023-04-03T00:22:54;30.92;;;13.82;;
77287;SDS011;66345;42.694;23.346;2023-04-03T00:25:20;32.40;;;13.47;;
77287;SDS011;66345;42.694;23.346;2023-04-03T00:27:46;24.75;;;11.07;;
77287;SDS011;66345;42.694;23.346;2023-04-03T00:30:13;20.03;;;9.10;;
77287;SDS011;66345;42.694;23.346;2023-04-03T00:32:41;15.80;;;8.05;;
77287;SDS011;66345;42.694;23.346;2023-04-03T00:35:06;16.90;;;8.27;;
77287;SDS011;66345;42.694;23.346;2023-04-03T00:37:32;14.45;;;7.38;;
77287;SDS011;66345;42.694;23.346;2023-04-03T00:39:58;17.10;;;7.67;;
77287;SDS011;66345;42.694;23.346;2023-04-03T00:42:23;19.38;;;7.47;;
77287;SDS011;66345;42.694;23.346;2023-04-03T00:47:18;14.38;;;6.35;;
77287;SDS011;66345;42.694;23.346;2023-04-03T00:49:43;14.68;;;6.32;;
77287;SDS011;66345;42.694;23.346;2023-04-03T00:52:11;15.70;;;6.38;;
77287;SDS011;66345;42.694;23.346;2023-04-03T00:54:41;15.40;;;5.93;;
77287;SDS011;66345;42.694;23.346;2023-04-03T00:57:08;14.73;;;6.15;;
77287;SDS011;66345;42.694;23.346;2023-04-03T00:59:37;14.48;;;5.93;;
77287;SDS011;66345;42.694;23.346;2023-04-03T01:02:07;12.70;;;6.53;;
77287;SDS011;66345;42.694;23.346;2023-04-03T01:04:38;14.97;;;5.90;;
77287;SDS011;66345;42.694;23.346;2023-04-03T01:07:27;15.68;;;6.72;;
77287;SDS011;66345;42.694;23.346;2023-04-03T01:09:55;13.60;;;6.00;;
77287;SDS011;66345;42.694;23.346;2023-04-03T01:12:23;14.10;;;6.23;;
77287;SDS011;66345;42.694;23.346;2023-04-03T01:14:55;15.48;;;6.55;;
77287;SDS011;66345;42.694;23.346;2023-04-03T01:20:02;17.38;;;6.45;;
77287;SDS011;66345;42.694;23.346;2023-04-03T01:23:26;14.07;;;6.32;;
77287;SDS011;66345;42.694;23.346;2023-04-03T01:25:27;15.27;;;7.40;;
77287;SDS011;66345;42.694;23.346;2023-04-03T01:27:53;13.13;;;7.10;;
77287;SDS011;66345;42.694;23.346;2023-04-03T01:30:19;11.53;;;5.63;;
77287;SDS011;66345;42.694;23.346;2023-04-03T01:32:46;11.38;;;5.47;;
77287;SDS011;66345;42.694;23.346;2023-04-03T01:35:11;13.00;;;6.33;;
77287;SDS011;66345;42.694;23.346;2023-04-03T01:37:37;9.77;;;5.45;;
77287;SDS011;66345;42.694;23.346;2023-04-03T01:40:03;12.00;;;4.60;;
77287;SDS011;66345;42.694;23.346;2023-04-03T01:42:30;10.15;;;4.22;;
77287;SDS011;66345;42.694;23.346;2023-04-03T01:44:56;9.63;;;4.17;;
77287;SDS011;66345;42.694;23.346;2023-04-03T01:47:21;10.47;;;4.10;;
77287;SDS011;66345;42.694;23.346;2023-04-03T01:49:47;8.05;;;4.20;;
77287;SDS011;66345;42.694;23.346;2023-04-03T01:52:12;9.63;;;3.70;;
77287;SDS011;66345;42.694;23.346;2023-04-03T01:54:38;9.77;;;3.67;;
77287;SDS011;66345;42.694;23.346;2023-04-03T01:57:03;8.00;;;3.90;;
77287;SDS011;66345;42.694;23.346;2023-04-03T01:59:29;10.55;;;4.00;;
77287;SDS011;66345;42.694;23.346;2023-04-03T02:01:54;8.40;;;4.10;;
77287;SDS011;66345;42.694;23.346;2023-04-03T02:04:20;8.37;;;3.90;;
77287;SDS011;66345;42.694;23.346;2023-04-03T02:06:45;6.32;;;2.95;;
77287;SDS011;66345;42.694;23.346;2023-04-03T02:09:11;5.77;;;2.90;;
77287;SDS011;66345;42.694;23.346;2023-04-03T02:11:36;6.53;;;2.97;;
77287;SDS011;66345;42.694;23.346;2023-04-03T02:14:02;7.80;;;3.13;;
77287;SDS011;66345;42.694;23.346;2023-04-03T02:16:27;8.00;;;2.90;;
77287;SDS011;66345;42.694;23.346;2023-04-03T02:18:53;6.20;;;2.97;;
77287;SDS011;66345;42.694;23.346;2023-04-03T02:21:19;6.33;;;2.80;;
77287;SDS011;66345;42.694;23.346;2023-04-03T02:23:45;7.25;;;2.85;;
77287;SDS011;66345;42.694;23.346;2023-04-03T02:26:11;7.20;;;2.77;;
77287;SDS011;66345;42.694;23.346;2023-04-03T02:28:37;6.50;;;3.03;;
77287;SDS011;66345;42.694;23.346;2023-04-03T02:31:03;8.30;;;2.90;;
77287;SDS011;66345;42.694;23.346;2023-04-03T02:33:30;8.15;;;3.30;;
77287;SDS011;66345;42.694;23.346;2023-04-03T02:35:55;9.47;;;3.70;;
77287;SDS011;66345;42.694;23.346;2023-04-03T02:38:21;7.93;;;2.80;;
77287;SDS011;66345;42.694;23.346;2023-04-03T02:40:47;6.77;;;3.03;;
77287;SDS011;66345;42.694;23.346;2023-04-03T02:43:12;7.82;;;3.05;;
77287;SDS011;66345;42.694;23.346;2023-04-03T02:45:41;8.53;;;3.13;;
77287;SDS011;66345;42.694;23.346;2023-04-03T02:48:06;12.23;;;3.15;;
77287;SDS011;66345;42.694;23.346;2023-04-03T02:50:32;6.83;;;2.73;;
77287;SDS011;66345;42.694;23.346;2023-04-03T02:52:57;6.87;;;2.77;;
77287;SDS011;66345;42.694;23.346;2023-04-03T02:55:22;7.63;;;2.90;;
77287;SDS011;66345;42.694;23.346;2023-04-03T02:57:48;6.13;;;3.07;;
77287;SDS011;66345;42.694;23.346;2023-04-03T03:00:13;9.27;;;3.28;;
77287;SDS011;66345;42.694;23.346;2023-04-03T03:02:39;7.90;;;3.45;;
77287;SDS011;66345;42.694;23.346;2023-04-03T03:05:05;11.45;;;4.38;;
77287;SDS011;66345;42.694;23.346;2023-04-03T03:07:32;8.57;;;3.88;;
77287;SDS011;66345;42.694;23.346;2023-04-03T03:09:58;8.17;;;3.40;;
77287;SDS011;66345;42.694;23.346;2023-04-03T03:12:23;13.13;;;4.13;;
77287;SDS011;66345;42.694;23.346;2023-04-03T03:14:49;12.13;;;4.27;;
77287;SDS011;66345;42.694;23.346;2023-04-03T03:17:15;11.98;;;4.65;;
77287;SDS011;66345;42.694;23.346;2023-04-03T03:19:42;15.52;;;4.70;;
77287;SDS011;66345;42.694;23.346;2023-04-03T03:22:07;10.10;;;4.40;;
77287;SDS011;66345;42.694;23.346;2023-04-03T03:24:33;12.57;;;4.75;;
77287;SDS011;66345;42.694;23.346;2023-04-03T03:26:58;15.63;;;5.33;;
77287;SDS011;66345;42.694;23.346;2023-04-03T03:29:24;11.53;;;4.77;;
77287;SDS011;66345;42.694;23.346;2023-04-03T03:31:49;12.27;;;4.97;;
77287;SDS011;66345;42.694;23.346;2023-04-03T03:34:15;12.05;;;5.63;;
77287;SDS011;66345;42.694;23.346;2023-04-03T03:36:40;10.50;;;5.60;;
77287;SDS011;66345;42.694;23.346;2023-04-03T03:39:06;15.87;;;6.37;;
77287;SDS011;66345;42.694;23.346;2023-04-03T03:41:31;13.25;;;6.95;;
77287;SDS011;66345;42.694;23.346;2023-04-03T03:43:57;13.30;;;6.47;;
77287;SDS011;66345;42.694;23.346;2023-04-03T03:46:22;16.10;;;6.90;;
77287;SDS011;66345;42.694;23.346;2023-04-03T03:48:48;15.47;;;7.00;;
77287;SDS011;66345;42.694;23.346;2023-04-03T03:51:13;18.77;;;7.28;;
77287;SDS011;66345;42.694;23.346;2023-04-03T03:53:39;17.23;;;7.20;;
77287;SDS011;66345;42.694;23.346;2023-04-03T03:56:05;18.30;;;7.32;;
77287;SDS011;66345;42.694;23.346;2023-04-03T03:58:30;19.67;;;8.13;;
77287;SDS011;66345;42.694;23.346;2023-04-03T04:00:59;16.80;;;7.72;;
77287;SDS011;66345;42.694;23.346;2023-04-03T04:03:26;13.48;;;7.10;;
77287;SDS011;66345;42.694;23.346;2023-04-03T04:05:51;15.60;;;6.80;;
77287;SDS011;66345;42.694;23.346;2023-04-03T04:08:17;16.07;;;7.47;;
77287;SDS011;66345;42.694;23.346;2023-04-03T04:10:42;13.63;;;7.43;;
77287;SDS011;66345;42.694;23.346;2023-04-03T04:13:08;17.33;;;7.55;;
77287;SDS011;66345;42.694;23.346;2023-04-03T04:15:33;17.50;;;7.77;;
77287;SDS011;66345;42.694;23.346;2023-04-03T04:17:59;14.37;;;7.23;;
77287;SDS011;66345;42.694;23.346;2023-04-03T04:20:24;15.50;;;7.37;;
77287;SDS011;66345;42.694;23.346;2023-04-03T04:22:49;14.93;;;7.55;;
77287;SDS011;66345;42.694;23.346;2023-04-03T04:25:15;15.13;;;7.07;;
77287;SDS011;66345;42.694;23.346;2023-04-03T04:27:41;17.83;;;6.93;;
77287;SDS011;66345;42.694;23.346;2023-04-03T04:30:06;17.58;;;7.90;;
77287;SDS011;66345;42.694;23.346;2023-04-03T04:32:32;20.25;;;8.07;;
77287;SDS011;66345;42.694;23.346;2023-04-03T04:34:58;17.73;;;7.38;;
77287;SDS011;66345;42.694;23.346;2023-04-03T04:37:23;20.00;;;7.37;;
77287;SDS011;66345;42.694;23.346;2023-04-03T04:39:49;16.50;;;7.23;;
77287;SDS011;66345;42.694;23.346;2023-04-03T04:42:14;24.02;;;8.75;;
77287;SDS011;66345;42.694;23.346;2023-04-03T04:44:40;21.13;;;8.83;;
77287;SDS011;66345;42.694;23.346;2023-04-03T04:47:05;25.50;;;9.87;;
77287;SDS011;66345;42.694;23.346;2023-04-03T04:49:31;23.90;;;8.63;;
77287;SDS011;66345;42.694;23.346;2023-04-03T04:51:56;21.85;;;8.95;;
77287;SDS011;66345;42.694;23.346;2023-04-03T04:54:22;25.70;;;9.43;;
77287;SDS011;66345;42.694;23.346;2023-04-03T04:56:47;19.67;;;9.23;;
77287;SDS011;66345;42.694;23.346;2023-04-03T04:59:13;27.65;;;10.00;;
77287;SDS011;66345;42.694;23.346;2023-04-03T05:01:38;21.95;;;10.02;;
77287;SDS011;66345;42.694;23.346;2023-04-03T05:04:04;23.03;;;10.03;;
77287;SDS011;66345;42.694;23.346;2023-04-03T05:06:30;24.38;;;10.10;;
77287;SDS011;66345;42.694;23.346;2023-04-03T05:08:56;25.27;;;10.65;;
77287;SDS011;66345;42.694;23.346;2023-04-03T05:11:22;26.30;;;10.17;;
77287;SDS011;66345;42.694;23.346;2023-04-03T05:13:47;31.20;;;12.73;;
77287;SDS011;66345;42.694;23.346;2023-04-03T05:16:13;18.20;;;9.45;;
77287;SDS011;66345;42.694;23.346;2023-04-03T05:18:38;18.33;;;9.20;;
77287;SDS011;66345;42.694;23.346;2023-04-03T05:21:04;19.43;;;8.93;;
77287;SDS011;66345;42.694;23.346;2023-04-03T05:23:29;16.00;;;7.87;;
77287;SDS011;66345;42.694;23.346;2023-04-03T05:25:55;25.58;;;9.30;;
77287;SDS011;66345;42.694;23.346;2023-04-03T05:28:20;22.87;;;9.70;;
77287;SDS011;66345;42.694;23.346;2023-04-03T05:30:52;21.27;;;9.47;;
77287;SDS011;66345;42.694;23.346;2023-04-03T05:33:19;26.52;;;10.13;;
77287;SDS011;66345;42.694;23.346;2023-04-03T05:35:44;33.63;;;11.30;;
77287;SDS011;66345;42.694;23.346;2023-04-03T05:38:10;23.67;;;11.25;;
77287;SDS011;66345;42.694;23.346;2023-04-03T05:40:36;42.57;;;16.17;;
77287;SDS011;66345;42.694;23.346;2023-04-03T05:43:02;31.70;;;14.57;;
77287;SDS011;66345;42.694;23.346;2023-04-03T05:45:27;25.60;;;14.03;;
77287;SDS011;66345;42.694;23.346;2023-04-03T05:47:53;33.03;;;13.23;;
77287;SDS011;66345;42.694;23.346;2023-04-03T05:50:18;28.17;;;10.85;;
77287;SDS011;66345;42.694;23.346;2023-04-03T05:52:44;19.53;;;9.17;;
77287;SDS011;66345;42.694;23.346;2023-04-03T05:55:11;19.55;;;9.05;;
77287;SDS011;66345;42.694;23.346;2023-04-03T05:57:37;21.47;;;8.40;;
77287;SDS011;66345;42.694;23.346;2023-04-03T06:00:03;16.73;;;7.30;;
77287;SDS011;66345;42.694;23.346;2023-04-03T06:02:31;33.30;;;13.95;;
77287;SDS011;66345;42.694;23.346;2023-04-03T06:04:56;46.00;;;15.30;;
77287;SDS011;66345;42.694;23.346;2023-04-03T06:07:23;36.38;;;13.20;;
77287;SDS011;66345;42.694;23.346;2023-04-03T06:09:53;23.30;;;9.23;;
77287;SDS011;66345;42.694;23.346;2023-04-03T06:12:19;20.58;;;9.02;;
77287;SDS011;66345;42.694;23.346;2023-04-03T06:14:45;19.80;;;10.10;;
77287;SDS011;66345;42.694;23.346;2023-04-03T06:17:11;20.43;;;10.43;;
77287;SDS011;66345;42.694;23.346;2023-04-03T06:19:37;21.60;;;11.30;;
77287;SDS011;66345;42.694;23.346;2023-04-03T06:22:03;23.98;;;11.82;;
77287;SDS011;66345;42.694;23.346;2023-04-03T06:24:28;24.67;;;11.40;;
77287;SDS011;66345;42.694;23.346;2023-04-03T06:26:55;28.58;;;11.50;;
77287;SDS011;66345;42.694;23.346;2023-04-03T06:29:21;28.10;;;13.03;;
77287;SDS011;66345;42.694;23.346;2023-04-03T06:31:47;24.40;;;12.48;;
77287;SDS011;66345;42.694;23.346;2023-04-03T06:34:13;26.27;;;13.50;;
77287;SDS011;66345;42.694;23.346;2023-04-03T06:36:38;28.08;;;14.77;;
77287;SDS011;66345;42.694;23.346;2023-04-03T06:39:04;28.92;;;13.88;;
77287;SDS011;66345;42.694;23.346;2023-04-03T06:41:30;29.03;;;14.83;;
77287;SDS011;66345;42.694;23.346;2023-04-03T06:43:56;25.73;;;14.68;;
77287;SDS011;66345;42.694;23.346;2023-04-03T06:46:23;24.30;;;14.50;;
77287;SDS011;66345;42.694;23.346;2023-04-03T06:48:50;26.73;;;13.43;;
77287;SDS011;66345;42.694;23.346;2023-04-03T06:51:20;25.05;;;13.57;;
77287;SDS011;66345;42.694;23.346;2023-04-03T06:53:51;21.10;;;14.43;;
77287;SDS011;66345;42.694;23.346;2023-04-03T06:59:06;22.70;;;11.43;;
77287;SDS011;66345;42.694;23.346;2023-04-03T07:01:32;21.90;;;10.43;;
77287;SDS011;66345;42.694;23.346;2023-04-03T07:03:57;20.23;;;10.13;;
77287;SDS011;66345;42.694;23.346;2023-04-03T07:06:23;22.87;;;10.10;;
77287;SDS011;66345;42.694;23.346;2023-04-03T07:08:51;20.33;;;10.07;;
77287;SDS011;66345;42.694;23.346;2023-04-03T07:11:17;19.27;;;8.82;;
77287;SDS011;66345;42.694;23.346;2023-04-03T07:13:42;16.60;;;9.53;;
77287;SDS011;66345;42.694;23.346;2023-04-03T07:16:08;16.63;;;9.60;;
77287;SDS011;66345;42.694;23.346;2023-04-03T07:18:34;19.20;;;10.38;;
77287;SDS011;66345;42.694;23.346;2023-04-03T07:21:01;23.95;;;11.35;;
77287;SDS011;66345;42.694;23.346;2023-04-03T07:23:27;20.17;;;10.32;;
77287;SDS011;66345;42.694;23.346;2023-04-03T07:25:52;19.00;;;9.87;;
77287;SDS011;66345;42.694;23.346;2023-04-03T07:28:18;20.07;;;9.90;;
77287;SDS011;66345;42.694;23.346;2023-04-03T07:30:45;22.67;;;11.88;;
77287;SDS011;66345;42.694;23.346;2023-04-03T07:33:13;23.33;;;12.15;;
77287;SDS011;66345;42.694;23.346;2023-04-03T07:35:39;23.40;;;12.50;;
77287;SDS011;66345;42.694;23.346;2023-04-03T07:38:05;22.17;;;13.13;;
77287;SDS011;66345;42.694;23.346;2023-04-03T07:40:31;23.87;;;12.20;;
77287;SDS011;66345;42.694;23.346;2023-04-03T07:42:57;25.25;;;12.18;;
77287;SDS011;66345;42.694;23.346;2023-04-03T07:45:23;21.25;;;11.85;;
77287;SDS011;66345;42.694;23.346;2023-04-03T07:47:49;18.97;;;10.53;;
77287;SDS011;66345;42.694;23.346;2023-04-03T07:50:14;21.35;;;10.73;;
77287;SDS011;66345;42.694;23.346;2023-04-03T07:52:40;24.30;;;11.45;;
77287;SDS011;66345;42.694;23.346;2023-04-03T07:55:06;23.60;;;11.43;;
77287;SDS011;66345;42.694;23.346;2023-04-03T07:57:32;17.95;;;9.63;;
77287;SDS011;66345;42.694;23.346;2023-04-03T07:59:57;19.00;;;9.52;;
77287;SDS011;66345;42.694;23.346;2023-04-03T08:02:23;20.88;;;10.98;;
77287;SDS011;66345;42.694;23.346;2023-04-03T08:04:49;22.75;;;11.07;;
77287;SDS011;66345;42.694;23.346;2023-04-03T08:07:15;25.27;;;11.87;;
77287;SDS011;66345;42.694;23.346;2023-04-03T08:09:40;21.95;;;11.32;;
77287;SDS011;66345;42.694;23.346;2023-04-03T08:12:06;21.03;;;10.30;;
77287;SDS011;66345;42.694;23.346;2023-04-03T08:14:33;19.67;;;11.17;;
77287;SDS011;66345;42.694;23.346;2023-04-03T08:17:01;22.33;;;10.68;;
77287;SDS011;66345;42.694;23.346;2023-04-03T08:19:29;22.00;;;10.23;;
77287;SDS011;66345;42.694;23.346;2023-04-03T08:21:54;22.77;;;10.13;;
77287;SDS011;66345;42.694;23.346;2023-04-03T08:24:21;16.38;;;10.00;;
77287;SDS011;66345;42.694;23.346;2023-04-03T08:26:47;18.25;;;10.15;;
77287;SDS011;66345;42.694;23.346;2023-04-03T08:29:12;20.03;;;10.17;;
77287;SDS011;66345;42.694;23.346;2023-04-03T08:31:41;17.97;;;10.23;;
77287;SDS011;66345;42.694;23.346;2023-04-03T08:34:06;22.23;;;11.10;;
77287;SDS011;66345;42.694;23.346;2023-04-03T08:36:31;21.60;;;11.40;;
77287;SDS011;66345;42.694;23.346;2023-04-03T08:38:57;21.48;;;11.60;;
77287;SDS011;66345;42.694;23.346;2023-04-03T08:43:57;19.25;;;11.65;;
77287;SDS011;66345;42.694;23.346;2023-04-03T08:52:10;20.40;;;11.10;;
77287;SDS011;66345;42.694;23.346;2023-04-03T08:54:43;21.27;;;11.45;;
77287;SDS011;66345;42.694;23.346;2023-04-03T08:57:28;25.13;;;12.30;;
77287;SDS011;66345;42.694;23.346;2023-04-03T08:59:57;20.35;;;10.93;;
77287;SDS011;66345;42.694;23.346;2023-04-03T09:02:27;17.65;;;9.63;;
77287;SDS011;66345;42.694;23.346;2023-04-03T09:04:58;17.30;;;8.57;;
77287;SDS011;66345;42.694;23.346;2023-04-03T09:07:49;18.20;;;9.68;;
77287;SDS011;66345;42.694;23.346;2023-04-03T09:10:23;17.77;;;8.85;;
77287;SDS011;66345;42.694;23.346;2023-04-03T09:12:59;19.88;;;9.65;;
77287;SDS011;66345;42.694;23.346;2023-04-03T09:15:29;20.73;;;9.75;;
77287;SDS011;66345;42.694;23.346;2023-04-03T09:22:54;21.40;;;12.45;;
77287;SDS011;66345;42.694;23.346;2023-04-03T09:25:20;20.73;;;11.13;;
77287;SDS011;66345;42.694;23.346;2023-04-03T09:27:48;15.15;;;9.77;;
77287;SDS011;66345;42.694;23.346;2023-04-03T09:30:15;20.55;;;10.23;;
77287;SDS011;66345;42.694;23.346;2023-04-03T09:32:46;22.23;;;10.30;;
77287;SDS011;66345;42.694;23.346;2023-04-03T09:37:46;20.73;;;10.50;;
77287;SDS011;66345;42.694;23.346;2023-04-03T09:42:52;25.77;;;11.63;;
77287;SDS011;66345;42.694;23.346;2023-04-03T09:45:34;21.27;;;11.55;;
77287;SDS011;66345;42.694;23.346;2023-04-03T09:48:06;26.73;;;12.35;;
77287;SDS011;66345;42.694;23.346;2023-04-03T09:50:37;24.20;;;11.70;;
77287;SDS011;66345;42.694;23.346;2023-04-03T09:53:11;22.58;;;12.88;;
77287;SDS011;66345;42.694;23.346;2023-04-03T09:58:42;21.77;;;11.48;;
77287;SDS011;66345;42.694;23.346;2023-04-03T10:06:29;18.65;;;9.95;;
77287;SDS011;66345;42.694;23.346;2023-04-03T10:09:01;16.98;;;10.00;;
77287;SDS011;66345;42.694;23.346;2023-04-03T10:11:30;16.45;;;9.57;;
77287;SDS011;66345;42.694;23.346;2023-04-03T10:14:00;17.52;;;8.73;;
77287;SDS011;66345;42.694;23.346;2023-04-03T10:27:39;14.55;;;8.30;;
77287;SDS011;66345;42.694;23.346;2023-04-03T10:33:23;19.48;;;8.38;;
77287;SDS011;66345;42.694;23.346;2023-04-03T10:41:17;15.52;;;7.18;;
77287;SDS011;66345;42.694;23.346;2023-04-03T10:46:35;16.80;;;6.97;;
77287;SDS011;66345;42.694;23.346;2023-04-03T10:52:25;11.98;;;6.00;;
77287;SDS011;66345;42.694;23.346;2023-04-03T10:57:30;10.85;;;5.32;;
77287;SDS011;66345;42.694;23.346;2023-04-03T11:00:03;11.55;;;5.05;;
77287;SDS011;66345;42.694;23.346;2023-04-03T11:05:39;9.98;;;5.18;;
77287;SDS011;66345;42.694;23.346;2023-04-03T11:10:48;10.25;;;4.90;;
77287;SDS011;66345;42.694;23.346;2023-04-03T11:13:35;13.77;;;4.60;;
77287;SDS011;66345;42.694;23.346;2023-04-03T11:16:05;7.32;;;3.83;;
77287;SDS011;66345;42.694;23.346;2023-04-03T11:18:42;7.50;;;2.80;;
77287;SDS011;66345;42.694;23.346;2023-04-03T11:21:34;5.88;;;2.58;;
77287;SDS011;66345;42.694;23.346;2023-04-03T11:24:05;6.55;;;2.65;;
77287;SDS011;66345;42.694;23.346;2023-04-03T11:26:41;10.77;;;3.20;;
77287;SDS011;66345;42.694;23.346;2023-04-03T11:29:15;7.82;;;2.58;;
77287;SDS011;66345;42.694;23.346;2023-04-03T11:34:34;6.07;;;2.67;;
77287;SDS011;66345;42.694;23.346;2023-04-03T11:37:13;5.45;;;2.92;;
77287;SDS011;66345;42.694;23.346;2023-04-03T11:39:40;7.78;;;3.30;;
77287;SDS011;66345;42.694;23.346;2023-04-03T11:42:22;6.25;;;2.65;;
77287;SDS011;66345;42.694;23.346;2023-04-03T11:50:50;5.85;;;2.80;;
77287;SDS011;66345;42.694;23.346;2023-04-03T12:05:47;7.20;;;2.85;;
77287;SDS011;66345;42.694;23.346;2023-04-03T12:16:42;5.05;;;2.63;;
77287;SDS011;66345;42.694;23.346;2023-04-03T12:29:25;6.60;;;3.22;;
77287;SDS011;66345;42.694;23.346;2023-04-03T12:46:17;6.80;;;3.88;;
77287;SDS011;66345;42.694;23.346;2023-04-03T12:48:56;7.70;;;4.57;;
77287;SDS011;66345;42.694;23.346;2023-04-03T12:53:49;9.93;;;5.17;;
77287;SDS011;66345;42.694;23.346;2023-04-03T12:56:22;10.20;;;4.72;;
77287;SDS011;66345;42.694;23.346;2023-04-03T12:58:50;7.95;;;4.20;;
77287;SDS011;66345;42.694;23.346;2023-04-03T13:01:18;9.35;;;5.50;;
77287;SDS011;66345;42.694;23.346;2023-04-03T13:03:48;10.75;;;6.03;;
77287;SDS011;66345;42.694;23.346;2023-04-03T13:06:18;11.27;;;5.80;;
77287;SDS011;66345;42.694;23.346;2023-04-03T13:08:50;10.97;;;6.37;;
77287;SDS011;66345;42.694;23.346;2023-04-03T13:11:22;11.90;;;6.30;;
77287;SDS011;66345;42.694;23.346;2023-04-03T13:13:54;14.55;;;6.82;;
77287;SDS011;66345;42.694;23.346;2023-04-03T13:16:21;11.25;;;6.35;;
77287;SDS011;66345;42.694;23.346;2023-04-03T13:18:50;11.02;;;5.97;;
77287;SDS011;66345;42.694;23.346;2023-04-03T13:21:18;14.57;;;7.30;;
77287;SDS011;66345;42.694;23.346;2023-04-03T13:23:47;15.70;;;7.75;;
77287;SDS011;66345;42.694;23.346;2023-04-03T13:26:15;12.18;;;7.18;;
77287;SDS011;66345;42.694;23.346;2023-04-03T13:28:43;11.75;;;6.97;;
77287;SDS011;66345;42.694;23.346;2023-04-03T13:33:43;14.53;;;7.77;;
77287;SDS011;66345;42.694;23.346;2023-04-03T13:36:30;9.63;;;6.28;;
77287;SDS011;66345;42.694;23.346;2023-04-03T13:41:42;12.35;;;5.80;;
77287;SDS011;66345;42.694;23.346;2023-04-03T13:46:51;12.60;;;6.40;;
77287;SDS011;66345;42.694;23.346;2023-04-03T13:51:59;11.77;;;5.95;;
77287;SDS011;66345;42.694;23.346;2023-04-03T13:54:33;9.23;;;5.75;;
77287;SDS011;66345;42.694;23.346;2023-04-03T13:57:02;11.27;;;6.45;;
77287;SDS011;66345;42.694;23.346;2023-04-03T13:59:34;10.33;;;6.83;;
77287;SDS011;66345;42.694;23.346;2023-04-03T14:04:31;10.32;;;6.35;;
77287;SDS011;66345;42.694;23.346;2023-04-03T14:06:58;12.95;;;6.97;;
77287;SDS011;66345;42.694;23.346;2023-04-03T14:09:25;11.43;;;6.90;;
77287;SDS011;66345;42.694;23.346;2023-04-03T14:11:53;10.07;;;6.57;;
77287;SDS011;66345;42.694;23.346;2023-04-03T14:14:23;9.32;;;5.90;;
77287;SDS011;66345;42.694;23.346;2023-04-03T14:16:53;9.80;;;6.13;;
77287;SDS011;66345;42.694;23.346;2023-04-03T14:19:22;10.85;;;6.03;;
77287;SDS011;66345;42.694;23.346;2023-04-03T14:21:49;9.98;;;6.22;;
77287;SDS011;66345;42.694;23.346;2023-04-03T14:24:17;10.50;;;5.93;;
77287;SDS011;66345;42.694;23.346;2023-04-03T14:26:44;9.10;;;5.20;;
77287;SDS011;66345;42.694;23.346;2023-04-03T14:29:11;7.45;;;4.43;;
77287;SDS011;66345;42.694;23.346;2023-04-03T14:31:37;9.32;;;4.65;;
77287;SDS011;66345;42.694;23.346;2023-04-03T14:34:03;9.70;;;5.38;;
77287;SDS011;66345;42.694;23.346;2023-04-03T14:36:29;9.10;;;4.87;;
77287;SDS011;66345;42.694;23.346;2023-04-03T14:38:55;10.95;;;5.50;;
77287;SDS011;66345;42.694;23.346;2023-04-03T14:41:22;8.30;;;5.07;;
77287;SDS011;66345;42.694;23.346;2023-04-03T14:43:49;8.27;;;5.53;;
77287;SDS011;66345;42.694;23.346;2023-04-03T14:46:29;8.95;;;5.70;;
77287;SDS011;66345;42.694;23.346;2023-04-03T14:48:59;10.90;;;5.63;;
77287;SDS011;66345;42.694;23.346;2023-04-03T14:51:25;9.10;;;5.37;;
77287;SDS011;66345;42.694;23.346;2023-04-03T14:53:52;12.10;;;5.80;;
77287;SDS011;66345;42.694;23.346;2023-04-03T14:56:23;13.05;;;6.55;;
77287;SDS011;66345;42.694;23.346;2023-04-03T14:58:55;8.47;;;4.93;;
77287;SDS011;66345;42.694;23.346;2023-04-03T15:01:23;10.43;;;5.57;;
77287;SDS011;66345;42.694;23.346;2023-04-03T15:03:49;7.22;;;4.88;;
77287;SDS011;66345;42.694;23.346;2023-04-03T15:06:14;6.00;;;3.73;;
77287;SDS011;66345;42.694;23.346;2023-04-03T15:08:41;5.20;;;2.92;;
77287;SDS011;66345;42.694;23.346;2023-04-03T15:11:11;6.38;;;3.75;;
77287;SDS011;66345;42.694;23.346;2023-04-03T15:13:37;7.10;;;3.57;;
77287;SDS011;66345;42.694;23.346;2023-04-03T15:16:04;6.68;;;3.03;;
77287;SDS011;66345;42.694;23.346;2023-04-03T15:18:32;6.13;;;3.55;;
77287;SDS011;66345;42.694;23.346;2023-04-03T15:21:02;7.57;;;3.60;;
77287;SDS011;66345;42.694;23.346;2023-04-03T15:23:28;7.00;;;3.67;;
77287;SDS011;66345;42.694;23.346;2023-04-03T15:25:55;5.57;;;3.40;;
77287;SDS011;66345;42.694;23.346;2023-04-03T15:30:55;5.70;;;3.13;;
77287;SDS011;66345;42.694;23.346;2023-04-03T15:33:20;6.83;;;3.53;;
77287;SDS011;66345;42.694;23.346;2023-04-03T15:35:46;6.70;;;3.90;;
77287;SDS011;66345;42.694;23.346;2023-04-03T15:38:11;6.10;;;3.40;;
77287;SDS011;66345;42.694;23.346;2023-04-03T15:40:37;7.20;;;3.57;;
77287;SDS011;66345;42.694;23.346;2023-04-03T15:43:04;9.13;;;4.18;;
77287;SDS011;66345;42.694;23.346;2023-04-03T15:45:30;8.40;;;4.63;;
77287;SDS011;66345;42.694;23.346;2023-04-03T15:47:56;9.52;;;5.60;;
77287;SDS011;66345;42.694;23.346;2023-04-03T15:50:22;9.70;;;5.60;;
77287;SDS011;66345;42.694;23.346;2023-04-03T15:52:49;9.57;;;5.43;;
77287;SDS011;66345;42.694;23.346;2023-04-03T15:55:19;9.03;;;5.10;;
77287;SDS011;66345;42.694;23.346;2023-04-03T15:57:48;8.13;;;4.70;;
77287;SDS011;66345;42.694;23.346;2023-04-03T16:00:14;10.98;;;5.40;;
77287;SDS011;66345;42.694;23.346;2023-04-03T16:02:40;10.07;;;5.32;;
77287;SDS011;66345;42.694;23.346;2023-04-03T16:05:06;8.80;;;4.78;;
77287;SDS011;66345;42.694;23.346;2023-04-03T16:07:32;11.35;;;5.63;;
77287;SDS011;66345;42.694;23.346;2023-04-03T16:09:58;12.23;;;6.30;;
77287;SDS011;66345;42.694;23.346;2023-04-03T16:12:23;9.93;;;5.15;;
77287;SDS011;66345;42.694;23.346;2023-04-03T16:14:49;11.45;;;5.68;;
77287;SDS011;66345;42.694;23.346;2023-04-03T16:17:14;11.07;;;6.53;;
77287;SDS011;66345;42.694;23.346;2023-04-03T16:19:40;10.43;;;6.70;;
77287;SDS011;66345;42.694;23.346;2023-04-03T16:22:06;13.57;;;7.72;;
77287;SDS011;66345;42.694;23.346;2023-04-03T16:24:31;14.23;;;7.70;;
77287;SDS011;66345;42.694;23.346;2023-04-03T16:26:57;15.20;;;8.43;;
77287;SDS011;66345;42.694;23.346;2023-04-03T16:29:23;12.83;;;7.73;;
77287;SDS011;66345;42.694;23.346;2023-04-03T16:31:48;10.43;;;5.90;;
77287;SDS011;66345;42.694;23.346;2023-04-03T16:34:14;13.07;;;6.40;;
77287;SDS011;66345;42.694;23.346;2023-04-03T16:36:40;9.40;;;6.03;;
77287;SDS011;66345;42.694;23.346;2023-04-03T16:39:05;10.00;;;5.60;;
77287;SDS011;66345;42.694;23.346;2023-04-03T16:41:31;10.30;;;6.33;;
77287;SDS011;66345;42.694;23.346;2023-04-03T16:43:57;10.50;;;6.13;;